createdAt,value
2023-05-12T00:05:15.383Z,967.16
2023-05-12T00:15:15.594Z,967.10
2023-05-12T00:25:15.737Z,967.21
2023-05-12T00:35:15.994Z,967.08
2023-05-12T00:45:16.069Z,967.04
2023-05-12T00:55:16.469Z,967.02
2023-05-12T01:05:16.407Z,967.06
2023-05-12T01:15:16.526Z,967.13
2023-05-12T01:25:16.700Z,967.07
2023-05-12T01:35:16.955Z,967.04
2023-05-12T01:45:16.983Z,966.90
2023-05-12T01:55:17.200Z,967.02
2023-05-12T02:05:17.367Z,966.91
2023-05-12T02:15:17.770Z,966.96
2023-05-12T02:25:17.729Z,967.00
2023-05-12T02:35:17.983Z,967.05
2023-05-12T02:45:18.255Z,967.03
2023-05-12T02:55:18.232Z,966.95
2023-05-12T03:05:18.354Z,967.03
2023-05-12T03:15:18.533Z,966.98
2023-05-12T03:25:18.655Z,966.95
2023-05-12T03:35:18.850Z,966.93
2023-05-12T03:45:19.261Z,967.02
2023-05-12T03:55:19.239Z,966.96
2023-05-12T04:05:19.573Z,966.92
2023-05-12T04:15:19.640Z,966.90
2023-05-12T04:25:19.691Z,967.03
2023-05-12T04:35:19.905Z,967.08
2023-05-12T04:45:20.321Z,967.12
2023-05-12T04:55:20.368Z,967.22
2023-05-12T05:05:20.457Z,967.31
2023-05-12T05:15:20.742Z,967.26
2023-05-12T05:25:20.924Z,967.34
2023-05-12T05:35:20.994Z,967.37
2023-05-12T05:45:21.348Z,967.26
2023-05-12T05:55:21.540Z,967.31
2023-05-12T06:05:21.631Z,967.41
2023-05-12T06:15:21.904Z,967.41
2023-05-12T06:25:22.184Z,967.51
2023-05-12T06:35:21.998Z,967.51
2023-05-12T06:45:22.292Z,967.50
2023-05-12T06:55:22.525Z,967.57
2023-05-12T07:05:22.766Z,967.49
2023-05-12T07:15:23.004Z,967.38
2023-05-12T07:25:23.177Z,967.38
2023-05-12T07:35:23.918Z,967.41
2023-05-12T07:45:22.986Z,967.38
2023-05-12T07:55:23.404Z,967.27
2023-05-12T08:05:23.321Z,967.40
2023-05-12T08:15:23.559Z,967.32
2023-05-12T08:25:23.614Z,967.40
2023-05-12T08:35:23.922Z,967.38
2023-05-12T08:45:24.280Z,967.41
2023-05-12T08:55:28.478Z,967.47
2023-05-12T09:05:25.302Z,967.36
2023-05-12T09:15:24.604Z,967.34
2023-05-12T09:25:24.672Z,967.31
2023-05-12T09:35:25.041Z,967.30
2023-05-12T09:45:24.987Z,967.34
2023-05-12T09:55:25.226Z,967.36
2023-05-12T10:05:25.392Z,967.46
2023-05-12T10:15:25.612Z,967.42
2023-05-12T10:25:25.764Z,967.43
2023-05-12T10:35:26.179Z,967.51
2023-05-12T10:45:26.080Z,967.44
2023-05-12T10:55:26.910Z,967.47
2023-05-12T11:05:27.401Z,967.39
2023-05-12T11:15:26.614Z,967.50
2023-05-12T11:25:26.786Z,967.43
2023-05-12T11:35:26.941Z,967.47
2023-05-12T11:45:27.090Z,967.50
2023-05-12T11:55:27.404Z,967.50
2023-05-12T12:05:27.459Z,967.56
2023-05-12T12:15:27.726Z,967.53
2023-05-12T12:25:27.776Z,967.63
2023-05-12T12:35:27.994Z,967.60
2023-05-12T12:45:28.177Z,967.60
2023-05-12T12:55:28.385Z,967.61
2023-05-12T13:05:28.550Z,967.61
2023-05-12T13:15:29.043Z,967.72
2023-05-12T13:25:28.868Z,967.79
2023-05-12T13:35:29.123Z,967.81
2023-05-12T13:45:29.271Z,967.70
2023-05-12T13:55:29.514Z,967.72
2023-05-12T14:05:29.829Z,967.70
2023-05-12T14:15:44.329Z,967.75
2023-05-12T14:25:30.949Z,967.87
2023-05-12T14:35:30.395Z,967.69
2023-05-12T14:45:30.627Z,967.72
2023-05-12T14:55:30.493Z,967.72
2023-05-12T15:05:52.546Z,967.77
2023-05-12T15:15:32.155Z,967.79
2023-05-12T15:25:31.115Z,967.91
2023-05-12T15:35:31.122Z,967.86
2023-05-12T15:45:31.293Z,967.86
2023-05-12T15:55:31.510Z,967.97
2023-05-12T16:05:31.675Z,967.86
2023-05-12T16:15:31.893Z,967.90
2023-05-12T16:25:32.060Z,967.99
2023-05-12T16:35:32.297Z,967.91
2023-05-12T16:45:32.450Z,967.95
2023-05-12T16:55:32.659Z,967.95
2023-05-12T17:05:32.797Z,968.08
2023-05-12T17:15:33.075Z,968.20
2023-05-12T17:25:33.212Z,968.25
2023-05-12T17:35:33.502Z,968.44
2023-05-12T17:45:33.434Z,968.50
2023-05-12T17:55:33.777Z,968.59
2023-05-12T18:05:34.957Z,968.66
2023-05-12T18:15:33.980Z,968.69
2023-05-12T18:25:34.642Z,968.78
2023-05-12T18:35:34.356Z,968.83
2023-05-12T18:45:34.522Z,968.81
2023-05-12T18:55:34.724Z,968.93
2023-05-12T19:05:34.880Z,968.93
2023-05-12T19:15:35.115Z,969.09
2023-05-12T19:25:35.279Z,969.15
2023-05-12T19:35:35.407Z,969.18
2023-05-12T19:45:35.595Z,969.24
2023-05-12T19:55:35.682Z,969.35
2023-05-12T20:05:37.058Z,969.39
2023-05-12T20:15:36.046Z,969.41
2023-05-12T20:25:36.223Z,969.49
2023-05-12T20:35:36.415Z,969.62
2023-05-12T20:45:36.661Z,969.52
2023-05-12T20:55:36.823Z,969.64
2023-05-12T21:05:36.874Z,969.61
2023-05-12T21:15:37.269Z,969.77
2023-05-12T21:25:37.187Z,969.81
2023-05-12T21:35:37.415Z,969.85
2023-05-12T21:45:37.680Z,969.89
2023-05-12T21:55:37.978Z,969.86
2023-05-12T22:05:37.902Z,969.92
2023-05-12T22:15:38.164Z,969.94
2023-05-12T22:25:38.229Z,969.94
2023-05-12T22:35:38.449Z,969.92
2023-05-12T22:45:38.545Z,969.91
2023-05-12T22:55:38.787Z,969.88
2023-05-12T23:05:38.962Z,969.93
2023-05-12T23:15:39.167Z,969.88
2023-05-12T23:25:39.317Z,969.81
2023-05-12T23:35:39.595Z,969.69
2023-05-12T23:45:39.671Z,969.67
2023-05-12T23:55:39.836Z,969.59
